Time;durP1;ratioP1;P1;durP2;ratioP2;P2;SDS_P1;SDS_P2;PMS_P1;PMS_P2;Temp;Humidity;BMP_temperature;BMP_pressure;BME280_temperature;BME280_humidity;BME280_pressure;Samples;Min_cycle;Max_cycle;Signal;HPM_P1;HPM_P2
2022/05/15 00:02:02;;;;;;;7.63;2.60;;;;;;;11.92;89.82;96518.06;5028644;28;20025;-75
2022/05/15 00:04:28;;;;;;;6.57;2.50;;;;;;;11.93;91.13;96506.53;5030621;28;20043;-75
2022/05/15 00:06:53;;;;;;;7.07;2.77;;;;;;;11.95;91.00;96499.31;5035281;28;20132;-76
2022/05/15 00:09:19;;;;;;;10.30;2.73;;;;;;;11.90;91.12;96500.78;5028495;28;20037;-75
2022/05/15 00:11:45;;;;;;;7.23;2.87;;;;;;;11.82;93.43;96495.47;5037208;28;20494;-75
2022/05/15 00:14:11;;;;;;;7.43;2.90;;;;;;;11.62;94.84;96497.53;5039077;28;20020;-75
2022/05/15 00:16:36;;;;;;;6.93;3.00;;;;;;;11.66;94.76;96501.50;5039353;28;20043;-75
2022/05/15 00:19:02;;;;;;;5.67;3.10;;;;;;;11.68;95.70;96502.16;5016280;28;20104;-76
2022/05/15 00:21:28;;;;;;;7.50;3.00;;;;;;;11.65;96.42;96494.59;5026911;28;20787;-75
2022/05/15 00:23:54;;;;;;;6.93;2.80;;;;;;;11.64;96.92;96493.75;5010735;28;20112;-75
2022/05/15 00:26:19;;;;;;;6.83;3.00;;;;;;;11.36;98.85;96492.31;5036558;28;20044;-75
2022/05/15 00:28:49;;;;;;;8.07;3.07;;;;;;;11.24;100.00;96497.03;5030992;28;20728;-75
2022/05/15 00:31:15;;;;;;;5.80;2.83;;;;;;;11.23;100.00;96490.97;5017543;28;20059;-76
2022/05/15 00:33:44;;;;;;;5.87;2.60;;;;;;;11.37;100.00;96488.69;5036500;28;20094;-76
2022/05/15 00:36:09;;;;;;;7.17;2.80;;;;;;;11.47;100.00;96486.78;5039008;28;20394;-75
2022/05/15 00:38:35;;;;;;;5.37;2.80;;;;;;;11.36;100.00;96485.22;5035530;28;20025;-75
2022/05/15 00:41:01;;;;;;;6.97;2.77;;;;;;;11.49;100.00;96485.63;5021530;28;20112;-75
2022/05/15 00:43:52;;;;;;;5.07;2.53;;;;;;;11.44;100.00;96490.56;5010668;28;20099;-75
2022/05/15 00:46:33;;;;;;;6.60;2.67;;;;;;;11.31;100.00;96492.78;5022499;28;20123;-76
2022/05/15 00:49:03;;;;;;;8.57;3.30;;;;;;;11.22;100.00;96488.47;5028085;28;20063;-76
2022/05/15 00:51:35;;;;;;;10.17;3.47;;;;;;;11.23;100.00;96482.22;5030647;28;20026;-75
2022/05/15 00:54:28;;;;;;;8.65;3.08;;;;;;;11.15;100.00;96490.91;5026887;28;20056;-75
2022/05/15 00:57:03;;;;;;;6.00;2.97;;;;;;;11.30;100.00;96486.72;5039511;28;20228;-75
2022/05/15 00:59:34;;;;;;;5.53;2.80;;;;;;;11.31;100.00;96490.16;5037382;28;20475;-75
2022/05/15 01:02:00;;;;;;;7.40;2.97;;;;;;;11.21;100.00;96489.47;5035096;28;20060;-75
2022/05/15 01:04:26;;;;;;;6.60;2.90;;;;;;;11.21;100.00;96482.38;5028524;28;20072;-74
2022/05/15 01:06:52;;;;;;;8.17;3.03;;;;;;;11.20;100.00;96479.88;5034853;28;20043;-75
2022/05/15 01:09:19;;;;;;;6.40;2.80;;;;;;;11.20;100.00;96485.16;5029929;28;20023;-75
2022/05/15 01:11:48;;;;;;;7.13;2.83;;;;;;;11.06;100.00;96474.22;5017089;28;20379;-75
2022/05/15 01:14:17;;;;;;;7.73;2.77;;;;;;;11.00;100.00;96472.25;5036623;28;20048;-75
2022/05/15 01:16:43;;;;;;;5.77;2.87;;;;;;;10.95;100.00;96478.94;5035225;28;20445;-75
2022/05/15 01:19:08;;;;;;;5.77;2.93;;;;;;;10.88;100.00;96477.91;5038234;28;20557;-75
2022/05/15 01:21:49;;;;;;;8.93;3.30;;;;;;;10.82;100.00;96479.34;5035666;28;20112;-75
2022/05/15 01:24:15;;;;;;;9.37;3.30;;;;;;;10.81;100.00;96475.06;5022589;28;20112;-75
2022/05/15 01:26:41;;;;;;;7.80;3.20;;;;;;;10.88;100.00;96472.66;5033431;28;20128;-75
2022/05/15 01:29:11;;;;;;;7.20;2.90;;;;;;;10.85;100.00;96476.41;5034323;28;20095;-75
2022/05/15 01:31:37;;;;;;;8.93;3.20;;;;;;;10.71;100.00;96469.09;5033878;28;20033;-75
2022/05/15 01:34:06;;;;;;;5.67;2.90;;;;;;;10.62;100.00;96470.81;5030739;28;20541;-75
2022/05/15 01:36:33;;;;;;;5.27;3.07;;;;;;;10.65;100.00;96469.69;5030448;28;20450;-75
2022/05/15 01:39:02;;;;;;;6.73;2.70;;;;;;;10.59;100.00;96460.63;5037300;28;20121;-75
2022/05/15 01:41:28;;;;;;;8.17;3.23;;;;;;;10.59;100.00;96458.81;5009556;28;20037;-75
2022/05/15 01:43:54;;;;;;;6.90;3.23;;;;;;;10.49;100.00;96471.22;5029300;28;20048;-75
2022/05/15 01:46:26;;;;;;;6.87;3.43;;;;;;;10.46;100.00;96474.19;5030325;28;20023;-75
2022/05/15 01:48:54;;;;;;;7.90;3.47;;;;;;;10.30;100.00;96468.78;5036516;28;20389;-75
2022/05/15 01:51:20;;;;;;;8.63;3.77;;;;;;;10.22;100.00;96466.03;5026633;28;20025;-75
2022/05/15 01:53:46;;;;;;;7.90;3.63;;;;;;;10.06;100.00;96470.19;5030022;28;20073;-75
2022/05/15 01:56:14;;;;;;;9.73;3.73;;;;;;;10.06;100.00;96474.59;5016711;28;20059;-75
2022/05/15 01:58:40;;;;;;;9.87;3.80;;;;;;;10.18;100.00;96469.97;5028950;28;20074;-75
2022/05/15 02:01:06;;;;;;;12.00;6.10;;;;;;;10.16;100.00;96467.50;5042375;28;20025;-75
2022/05/15 02:03:33;;;;;;;6.67;4.03;;;;;;;10.14;100.00;96470.25;5029236;28;20097;-75
2022/05/15 02:06:01;;;;;;;6.43;3.50;;;;;;;10.14;100.00;96467.63;5039170;28;20025;-75
2022/05/15 02:08:33;;;;;;;5.73;3.17;;;;;;;10.20;100.00;96470.66;5040023;28;20409;-75
2022/05/15 02:10:59;;;;;;;8.97;3.90;;;;;;;10.18;100.00;96468.16;5027865;28;20490;-76
2022/05/15 02:13:26;;;;;;;7.97;4.07;;;;;;;10.16;100.00;96464.88;5034406;28;20068;-75
2022/05/15 02:15:51;;;;;;;11.80;4.73;;;;;;;10.29;100.00;96459.22;5037947;28;20386;-75
2022/05/15 02:18:17;;;;;;;7.70;3.90;;;;;;;10.24;100.00;96470.19;5023293;28;20079;-74
2022/05/15 02:20:43;;;;;;;8.73;3.60;;;;;;;10.28;100.00;96465.47;5039158;28;20040;-75
2022/05/15 02:23:09;;;;;;;8.00;3.40;;;;;;;10.38;100.00;96464.41;5036078;28;20624;-76
2022/05/15 02:25:35;;;;;;;7.53;3.53;;;;;;;10.23;100.00;96465.91;5028419;28;20030;-74
2022/05/15 02:28:01;;;;;;;7.37;3.33;;;;;;;10.20;100.00;96460.97;5058985;28;20028;-75
2022/05/15 02:30:27;;;;;;;7.80;3.80;;;;;;;9.99;100.00;96458.59;5047664;28;20122;-75
2022/05/15 02:32:53;;;;;;;10.77;3.87;;;;;;;9.99;100.00;96458.59;5018122;28;20099;-74
2022/05/15 02:35:19;;;;;;;6.73;3.47;;;;;;;10.05;100.00;96462.44;5034349;28;20029;-75
2022/05/15 02:37:47;;;;;;;8.97;3.53;;;;;;;9.96;100.00;96471.22;5033164;28;20044;-75
2022/05/15 02:40:15;;;;;;;7.07;3.40;;;;;;;9.95;100.00;96466.94;5045476;28;20029;-75
2022/05/15 02:42:41;;;;;;;6.80;3.60;;;;;;;10.04;100.00;96464.25;5042236;28;20387;-74
2022/05/15 02:45:07;;;;;;;6.17;3.07;;;;;;;10.05;100.00;96462.44;5033070;28;20029;-75
2022/05/15 02:47:33;;;;;;;11.07;3.80;;;;;;;10.04;100.00;96453.75;5023897;28;20021;-75
2022/05/15 02:52:43;;;;;;;8.13;3.33;;;;;;;9.89;100.00;96457.84;5014544;28;20054;-76
2022/05/15 02:55:10;;;;;;;8.47;3.33;;;;;;;9.97;100.00;96460.56;5022384;28;20057;-76
2022/05/15 02:57:40;;;;;;;6.77;3.70;;;;;;;9.88;100.00;96459.66;5025497;28;20821;-76
2022/05/15 03:00:09;;;;;;;6.23;3.77;;;;;;;9.86;100.00;96463.44;5041492;28;20029;-75
2022/05/15 03:02:37;;;;;;;7.53;3.73;;;;;;;9.87;100.00;96468.53;5043028;28;20029;-75
2022/05/15 03:05:05;;;;;;;8.23;3.30;;;;;;;9.84;100.00;96468.00;5037939;28;20032;-76
2022/05/15 03:07:31;;;;;;;7.47;3.60;;;;;;;9.71;100.00;96467.53;5030178;28;20040;-76
2022/05/15 03:09:56;;;;;;;5.20;3.47;;;;;;;9.74;100.00;96460.19;5028504;28;20041;-76
2022/05/15 03:12:22;;;;;;;8.80;3.30;;;;;;;9.66;100.00;96458.31;5043143;28;20386;-75
2022/05/15 03:14:48;;;;;;;6.50;3.20;;;;;;;9.67;100.00;96464.38;5038382;28;20487;-75
2022/05/15 03:17:16;;;;;;;7.80;2.97;;;;;;;9.74;100.00;96459.34;5009186;28;20033;-75
2022/05/15 03:19:43;;;;;;;8.73;3.57;;;;;;;9.71;100.00;96457.84;5043507;28;20114;-74
2022/05/15 03:22:09;;;;;;;6.47;3.20;;;;;;;9.78;100.00;96460.72;5030480;28;20707;-75
2022/05/15 03:24:35;;;;;;;7.90;3.33;;;;;;;9.79;100.00;96460.56;5029198;28;20026;-75
2022/05/15 03:27:02;;;;;;;7.83;3.67;;;;;;;9.65;100.00;96463.69;5023328;28;20505;-75
2022/05/15 03:29:28;;;;;;;7.60;3.63;;;;;;;9.61;100.00;96460.53;5040464;28;20032;-74
2022/05/15 03:31:54;;;;;;;8.57;3.97;;;;;;;9.52;100.00;96456.16;5035336;28;20160;-74
2022/05/15 03:34:20;;;;;;;8.63;3.97;;;;;;;9.57;100.00;96459.19;5047129;28;20501;-74
2022/05/15 03:36:51;;;;;;;7.40;3.67;;;;;;;9.66;100.00;96463.56;5027567;28;20111;-74
2022/05/15 03:39:19;;;;;;;8.83;3.67;;;;;;;9.69;100.00;96462.41;5036913;28;20029;-74
2022/05/15 03:41:46;;;;;;;7.17;3.27;;;;;;;9.54;100.00;96469.97;5045651;28;20033;-75
2022/05/15 03:44:13;;;;;;;9.57;4.27;;;;;;;9.48;100.00;96465.31;5042964;28;20921;-74
2022/05/15 03:46:40;;;;;;;8.67;4.07;;;;;;;9.50;100.00;96463.38;5036426;28;20033;-74
2022/05/15 03:49:07;;;;;;;8.37;3.40;;;;;;;9.39;100.00;96468.84;5023533;28;20135;-74
2022/05/15 03:51:34;;;;;;;11.20;4.07;;;;;;;9.27;100.00;96475.22;5020562;28;20037;-74
2022/05/15 03:54:00;;;;;;;6.70;3.50;;;;;;;9.13;100.00;96472.13;5028351;28;20120;-75
2022/05/15 03:59:11;;;;;;;8.40;3.67;;;;;;;9.31;100.00;96481.84;5023685;28;20029;-74
2022/05/15 04:01:37;;;;;;;9.47;5.77;;;;;;;9.35;100.00;96476.16;5024892;28;20028;-74
2022/05/15 04:04:04;;;;;;;6.90;3.63;;;;;;;9.38;100.00;96470.59;5045215;28;20028;-74
2022/05/15 04:06:31;;;;;;;9.50;4.57;;;;;;;9.44;100.00;96483.16;5014360;28;20117;-74
2022/05/15 04:08:56;;;;;;;6.13;3.67;;;;;;;9.57;100.00;96474.94;5036606;28;20091;-75
2022/05/15 04:11:23;;;;;;;7.47;4.70;;;;;;;9.63;100.00;96479.59;5021525;28;20033;-75
2022/05/15 04:13:48;;;;;;;8.80;3.70;;;;;;;9.75;100.00;96477.59;5035282;28;20028;-74
2022/05/15 04:16:14;;;;;;;6.23;3.53;;;;;;;9.75;100.00;96474.13;5029728;28;20117;-75
2022/05/15 04:18:40;;;;;;;6.90;3.67;;;;;;;9.89;100.00;96473.63;5036352;28;20029;-74
2022/05/15 04:21:06;;;;;;;8.17;3.70;;;;;;;9.98;100.00;96477.16;5039378;28;20025;-74
2022/05/15 04:23:32;;;;;;;7.17;3.60;;;;;;;10.09;100.00;96472.53;5036677;28;20433;-75
2022/05/15 04:25:58;;;;;;;7.37;4.03;;;;;;;10.20;100.00;96471.47;5035697;28;20037;-75
2022/05/15 04:28:23;;;;;;;5.80;3.43;;;;;;;10.23;100.00;96475.56;5033828;28;20056;-75
2022/05/15 04:30:49;;;;;;;6.63;3.40;;;;;;;10.32;100.00;96472.06;5021629;28;20083;-75
2022/05/15 04:33:15;;;;;;;6.63;3.70;;;;;;;10.27;100.00;96472.53;5036177;28;20056;-75
2022/05/15 04:35:41;;;;;;;11.33;3.63;;;;;;;10.30;100.00;96481.94;5028069;28;20029;-75
2022/05/15 04:38:08;;;;;;;8.10;3.30;;;;;;;10.33;100.00;96477.19;5042824;28;20075;-75
2022/05/15 04:40:34;;;;;;;7.50;3.93;;;;;;;10.38;100.00;96476.72;5031421;28;20080;-75
2022/05/15 04:42:59;;;;;;;6.70;3.73;;;;;;;10.39;100.00;96473.13;5015476;28;20454;-75
2022/05/15 04:45:25;;;;;;;9.50;3.70;;;;;;;10.47;100.00;96475.81;5035038;28;20454;-75
2022/05/15 04:47:51;;;;;;;6.57;3.03;;;;;;;10.64;100.00;96479.41;5042684;28;20437;-75
2022/05/15 04:50:18;;;;;;;8.00;2.80;;;;;;;10.76;100.00;96477.34;5040343;28;20128;-75
2022/05/15 04:52:44;;;;;;;7.80;3.50;;;;;;;10.89;100.00;96477.75;5032800;28;20123;-74
2022/05/15 04:55:10;;;;;;;5.63;3.07;;;;;;;10.98;100.00;96478.63;5041612;28;20922;-75
2022/05/15 04:57:37;;;;;;;11.73;3.13;;;;;;;11.08;100.00;96482.81;5035474;28;20140;-75
2022/05/15 05:00:10;;;;;;;7.43;3.10;;;;;;;11.15;100.00;96476.91;5012385;28;20034;-75
2022/05/15 05:02:36;;;;;;;4.50;2.60;;;;;;;11.20;100.00;96485.16;5025345;28;20119;-75
2022/05/15 05:05:02;;;;;;;9.03;3.43;;;;;;;11.21;100.00;96484.19;5037510;28;20086;-75
2022/05/15 05:07:28;;;;;;;9.90;3.47;;;;;;;11.15;100.00;96480.38;5040331;28;20112;-75
2022/05/15 05:09:54;;;;;;;8.90;3.90;;;;;;;11.18;100.00;96481.88;5031555;28;20071;-75
2022/05/15 05:12:20;;;;;;;8.10;3.17;;;;;;;11.36;100.00;96490.50;5021902;28;20078;-75
2022/05/15 05:14:46;;;;;;;9.00;3.13;;;;;;;11.40;100.00;96489.22;5036117;28;20025;-75
2022/05/15 05:17:13;;;;;;;6.80;2.70;;;;;;;11.66;100.00;96496.22;5038264;28;20031;-75
2022/05/15 05:19:41;;;;;;;10.03;3.50;;;;;;;11.72;100.00;96485.06;5030410;28;20037;-75
2022/05/15 05:22:07;;;;;;;5.70;3.00;;;;;;;11.96;100.00;96484.31;5027640;28;20034;-75
2022/05/15 05:24:33;;;;;;;5.53;2.87;;;;;;;12.12;100.00;96486.16;5019065;28;20047;-75
2022/05/15 05:26:59;;;;;;;8.03;3.27;;;;;;;12.21;100.00;96490.47;5018597;28;20402;-75
2022/05/15 05:29:25;;;;;;;8.13;2.97;;;;;;;12.54;100.00;96477.28;5036859;28;20033;-75
2022/05/15 05:31:51;;;;;;;9.33;3.30;;;;;;;12.62;100.00;96486.03;5038963;28;20037;-75
2022/05/15 05:34:17;;;;;;;9.03;3.23;;;;;;;12.89;100.00;96481.38;5037281;28;20033;-75
2022/05/15 05:36:44;;;;;;;7.13;2.90;;;;;;;13.16;100.00;96488.91;5042478;28;20086;-75
2022/05/15 05:39:11;;;;;;;6.90;3.33;;;;;;;13.30;100.00;96484.78;5030337;28;20029;-75
2022/05/15 05:41:36;;;;;;;6.40;3.40;;;;;;;13.33;97.84;96481.78;5036967;28;20029;-75
2022/05/15 05:44:03;;;;;;;7.77;3.80;;;;;;;13.26;98.11;96480.84;5040300;28;20082;-75
2022/05/15 05:46:29;;;;;;;8.87;3.57;;;;;;;13.64;95.05;96483.66;5032918;28;20057;-75
2022/05/15 05:48:56;;;;;;;7.20;3.70;;;;;;;13.68;96.29;96490.22;5035455;28;20112;-75
2022/05/15 05:51:22;;;;;;;8.90;4.17;;;;;;;14.14;94.72;96485.84;5016889;28;20109;-75
2022/05/15 05:53:48;;;;;;;9.77;4.03;;;;;;;14.66;90.72;96479.06;5033018;28;20041;-75
2022/05/15 05:56:14;;;;;;;7.67;4.07;;;;;;;14.73;88.63;96482.66;5036750;28;20057;-76
2022/05/15 05:58:40;;;;;;;9.87;3.67;;;;;;;15.11;88.57;96484.44;5011887;28;20037;-75
2022/05/15 06:01:07;;;;;;;11.67;6.80;;;;;;;15.36;82.18;96480.53;5019343;28;20026;-75
2022/05/15 06:06:17;;;;;;;8.30;3.00;;;;;;;15.53;82.94;96483.81;5015497;28;20455;-75
2022/05/15 06:08:44;;;;;;;7.73;3.23;;;;;;;15.73;80.35;96484.91;5010569;28;20040;-75
2022/05/15 06:11:10;;;;;;;8.07;3.13;;;;;;;15.92;79.04;96483.50;5039638;28;20037;-75
2022/05/15 06:13:36;;;;;;;5.70;2.80;;;;;;;16.01;79.60;96487.69;5027143;28;20057;-75
2022/05/15 06:16:03;;;;;;;8.43;3.10;;;;;;;16.33;76.71;96492.69;5038722;28;20430;-76
2022/05/15 06:18:28;;;;;;;10.80;2.83;;;;;;;16.14;78.25;96499.47;5035653;28;20044;-76
2022/05/15 06:20:54;;;;;;;6.87;2.70;;;;;;;16.84;74.55;96492.63;5036691;28;20029;-75
2022/05/15 06:23:21;;;;;;;6.50;2.70;;;;;;;16.46;71.77;96498.16;5035534;28;20139;-75
2022/05/15 06:25:47;;;;;;;5.73;2.50;;;;;;;16.87;72.18;96492.22;5011405;28;20120;-76
2022/05/15 06:28:13;;;;;;;5.87;2.57;;;;;;;16.96;73.04;96483.09;5013066;28;20030;-76
2022/05/15 06:30:39;;;;;;;6.03;2.60;;;;;;;17.22;70.85;96489.59;5022943;28;20046;-76
2022/05/15 06:33:06;;;;;;;6.40;2.60;;;;;;;17.63;67.88;96479.81;5029145;28;20083;-75
2022/05/15 06:35:32;;;;;;;5.38;2.55;;;;;;;18.28;65.48;96480.28;5028455;28;20032;-76
2022/05/15 06:38:06;;;;;;;5.68;2.40;;;;;;;18.03;65.37;96482.66;5026687;28;20041;-75
2022/05/15 06:40:32;;;;;;;8.18;2.60;;;;;;;18.04;64.58;96479.00;5025199;28;20026;-76
2022/05/15 06:42:58;;;;;;;5.22;2.45;;;;;;;18.77;62.84;96465.81;5039040;28;20028;-76
2022/05/15 06:45:25;;;;;;;5.35;2.08;;;;;;;18.49;63.84;96471.31;5030676;28;20376;-76
2022/05/15 06:47:51;;;;;;;4.57;2.63;;;;;;;18.19;66.17;96470.03;5034507;28;20033;-76
2022/05/15 06:50:17;;;;;;;5.63;2.50;;;;;;;18.31;65.41;96476.41;5026895;28;20025;-75
2022/05/15 06:52:43;;;;;;;8.02;2.42;;;;;;;18.78;66.16;96462.16;5024456;28;20121;-76
2022/05/15 06:55:13;;;;;;;9.57;3.00;;;;;;;18.74;63.55;96465.41;5036489;28;20108;-76
2022/05/15 06:57:39;;;;;;;6.72;2.85;;;;;;;19.49;61.04;96469.44;5036612;28;20025;-76
2022/05/15 07:00:16;;;;;;;5.50;2.67;;;;;;;19.74;60.39;96474.09;5013224;28;20151;-76
2022/05/15 07:02:42;;;;;;;9.02;2.92;;;;;;;19.90;59.98;96476.28;5020285;28;20056;-76
2022/05/15 07:05:10;;;;;;;5.57;2.63;;;;;;;19.89;59.25;96479.19;5037725;28;20025;-76
2022/05/15 07:07:37;;;;;;;8.43;2.40;;;;;;;19.96;57.68;96475.44;5034208;28;20026;-76
2022/05/15 07:10:04;;;;;;;3.72;2.10;;;;;;;20.82;56.87;96478.63;5024090;28;20036;-75
2022/05/15 07:12:30;;;;;;;4.60;2.28;;;;;;;20.88;57.69;96475.91;5037368;28;20092;-76
2022/05/15 07:14:56;;;;;;;6.38;2.42;;;;;;;20.51;56.99;96480.31;5032207;28;20030;-76
2022/05/15 07:17:21;;;;;;;6.05;2.05;;;;;;;20.65;55.70;96473.00;5034973;28;20558;-76
2022/05/15 07:19:47;;;;;;;5.32;2.53;;;;;;;20.72;56.69;96484.47;5031058;28;20112;-77
2022/05/15 07:22:13;;;;;;;5.63;2.35;;;;;;;21.38;53.35;96478.56;5026906;28;20033;-77
2022/05/15 07:24:40;;;;;;;5.45;2.20;;;;;;;22.03;51.68;96474.53;5034378;28;20037;-76
2022/05/15 07:27:07;;;;;;;6.20;2.47;;;;;;;22.54;51.27;96470.59;5029547;28;20028;-76
2022/05/15 07:29:36;;;;;;;6.70;2.55;;;;;;;22.45;50.41;96472.78;5012564;28;21795;-77
2022/05/15 07:32:06;;;;;;;4.80;2.08;;;;;;;23.12;48.51;96477.13;5035663;28;20427;-77
2022/05/15 07:34:33;;;;;;;5.30;2.33;;;;;;;22.58;50.45;96467.22;5033951;28;20775;-77
2022/05/15 07:36:59;;;;;;;4.15;1.95;;;;;;;23.39;47.41;96466.75;5018575;28;20029;-78
2022/05/15 07:39:25;;;;;;;5.75;2.15;;;;;;;23.60;47.61;96471.50;5031776;28;20035;-78
2022/05/15 07:41:51;;;;;;;6.35;1.85;;;;;;;23.37;45.41;96463.47;5041176;28;20034;-78
2022/05/15 07:44:17;;;;;;;4.72;2.30;;;;;;;23.68;43.34;96465.00;5035717;28;20067;-79
2022/05/15 07:46:44;;;;;;;4.53;1.60;;;;;;;23.28;43.97;96466.50;5041963;28;20175;-80
2022/05/15 07:49:10;;;;;;;10.13;1.58;;;;;;;22.73;42.45;96466.78;5042215;28;20056;-79
2022/05/15 07:51:38;;;;;;;7.93;1.50;;;;;;;23.83;40.81;96464.47;5016039;28;20029;-79
2022/05/15 07:54:04;;;;;;;4.43;1.50;;;;;;;23.80;40.10;96459.59;5041088;28;20021;-77
2022/05/15 07:56:29;;;;;;;4.78;1.48;;;;;;;23.58;38.75;96454.81;5037781;28;20721;-79
2022/05/15 07:58:55;;;;;;;5.95;1.80;;;;;;;23.35;39.17;96452.97;5040503;28;20521;-79
2022/05/15 08:01:21;;;;;;;5.93;1.95;;;;;;;23.55;38.74;96444.56;5031016;28;20032;-78
2022/05/15 08:03:47;;;;;;;4.28;1.10;;;;;;;23.99;36.40;96453.81;5025525;28;20049;-78
2022/05/15 08:09:00;;;;;;;3.78;1.42;;;;;;;24.28;37.31;96450.28;5038613;28;20037;-79
2022/05/15 08:11:28;;;;;;;4.93;1.58;;;;;;;24.41;36.68;96448.19;5029140;28;20107;-79
2022/05/15 08:13:58;;;;;;;6.40;1.67;;;;;;;23.94;36.54;96450.19;5033015;28;20037;-79
2022/05/15 08:16:25;;;;;;;6.38;1.40;;;;;;;24.00;36.15;96454.63;5050344;28;20053;-79
2022/05/15 08:24:20;;;;;;;3.60;1.40;;;;;;;24.17;35.82;96449.28;5035723;28;20060;-78
2022/05/15 08:26:46;;;;;;;4.35;1.40;;;;;;;24.22;36.10;96455.59;5042965;28;20045;-78
2022/05/15 08:29:12;;;;;;;4.43;1.65;;;;;;;25.16;34.56;96455.09;5015614;28;20032;-78
2022/05/15 08:31:41;;;;;;;9.18;1.80;;;;;;;25.52;33.74;96447.53;5043606;28;20486;-79
2022/05/15 08:34:08;;;;;;;5.50;1.40;;;;;;;26.27;33.37;96445.19;5029236;28;20068;-78
2022/05/15 08:36:34;;;;;;;4.20;1.33;;;;;;;26.90;31.16;96449.06;5034856;28;20655;-79
2022/05/15 08:39:00;;;;;;;5.03;1.40;;;;;;;26.26;32.29;96455.19;5026012;28;20043;-79
2022/05/15 08:41:33;;;;;;;5.47;1.80;;;;;;;25.59;33.10;96458.94;5033372;28;20509;-80
2022/05/15 08:44:08;;;;;;;7.05;1.67;;;;;;;25.53;33.81;96449.16;5033325;28;20034;-78
2022/05/15 08:46:51;;;;;;;3.80;1.40;;;;;;;25.60;33.24;96440.88;5021716;28;20124;-78
2022/05/15 08:49:46;;;;;;;5.22;1.40;;;;;;;26.82;32.94;96448.72;5018319;28;20033;-78
2022/05/15 08:52:21;;;;;;;5.70;1.65;;;;;;;26.02;33.11;96443.88;5026793;28;20033;-78
2022/05/15 08:54:55;;;;;;;3.88;1.50;;;;;;;25.78;33.29;96445.13;5032519;28;20025;-77
2022/05/15 08:57:41;;;;;;;3.60;1.45;;;;;;;26.17;33.13;96455.88;5035204;28;20426;-79
2022/05/15 09:00:11;;;;;;;5.57;1.55;;;;;;;25.53;33.18;96451.84;5030726;28;20198;-78
2022/05/15 09:02:42;;;;;;;3.92;1.30;;;;;;;25.38;33.89;96451.63;5034504;28;20543;-77
2022/05/15 09:05:10;;;;;;;3.67;1.33;;;;;;;26.19;32.27;96456.41;5027283;28;20355;-78
2022/05/15 09:08:14;;;;;;;5.30;1.30;;;;;;;25.92;32.42;96457.19;5043130;28;20474;-78
2022/05/15 09:10:58;;;;;;;4.43;1.38;;;;;;;25.59;33.27;96453.53;5036355;28;20049;-78
2022/05/15 09:13:30;;;;;;;8.70;1.48;;;;;;;26.31;32.08;96451.72;5035493;28;20029;-78
2022/05/15 09:16:01;;;;;;;5.35;1.23;;;;;;;26.31;32.42;96447.13;5031572;28;20037;-78
2022/05/15 09:18:28;;;;;;;4.53;1.63;;;;;;;26.37;30.83;96442.63;5041591;28;20098;-78
2022/05/15 09:21:03;;;;;;;5.18;1.35;;;;;;;27.23;30.97;96447.16;5031197;28;20033;-78
2022/05/15 09:23:36;;;;;;;4.63;1.27;;;;;;;25.74;33.27;96444.03;5040731;28;20028;-75
2022/05/15 09:26:15;;;;;;;5.40;1.40;;;;;;;25.98;30.77;96440.03;5031205;28;20123;-78
2022/05/15 09:28:52;;;;;;;51.90;42.92;;;;;;;25.90;32.87;96448.56;5032233;28;20037;-77
2022/05/15 09:31:23;;;;;;;6.22;2.40;;;;;;;26.48;31.32;96435.47;5041751;28;20557;-79
2022/05/15 09:34:24;;;;;;;4.40;1.75;;;;;;;26.80;30.67;96441.69;5047476;28;20071;-79
2022/05/15 09:36:51;;;;;;;3.65;1.30;;;;;;;26.19;30.59;96443.78;5040061;28;20045;-80
2022/05/15 09:39:24;;;;;;;2.58;1.30;;;;;;;25.84;30.97;96450.38;5041859;28;20051;-78
2022/05/15 09:45:08;;;;;;;3.58;1.27;;;;;;;26.03;32.32;96442.78;5036243;28;20521;-79
2022/05/15 09:47:40;;;;;;;5.03;1.60;;;;;;;26.35;30.66;96439.34;5001701;28;20040;-80
2022/05/15 09:50:28;;;;;;;5.30;1.52;;;;;;;26.23;30.58;96444.09;5018913;28;20617;-79
2022/05/15 09:52:57;;;;;;;4.05;1.50;;;;;;;27.31;29.52;96438.56;5014998;28;20045;-79
2022/05/15 09:55:26;;;;;;;2.15;1.10;;;;;;;28.06;30.28;96438.41;5040909;28;20584;-79
2022/05/15 09:58:00;;;;;;;4.60;1.30;;;;;;;27.67;30.10;96438.78;5038481;28;20051;-79
2022/05/15 10:00:29;;;;;;;2.33;1.30;;;;;;;27.63;27.96;96438.50;5043560;28;20045;-79
2022/05/15 10:03:03;;;;;;;5.28;1.70;;;;;;;27.38;30.17;96441.84;5038128;28;20556;-79
2022/05/15 10:05:33;;;;;;;6.25;1.80;;;;;;;27.86;28.82;96439.94;5034284;28;20724;-79
2022/05/15 10:08:01;;;;;;;2.97;1.33;;;;;;;28.61;29.13;96437.75;5040538;28;20033;-79
2022/05/15 10:10:32;;;;;;;3.33;1.30;;;;;;;28.32;27.05;96447.41;5035983;28;20038;-79
2022/05/15 10:13:18;;;;;;;4.78;1.10;;;;;;;29.58;26.03;96423.34;5049464;28;20033;-79
2022/05/15 10:15:48;;;;;;;3.92;1.42;;;;;;;27.67;27.54;96423.38;5029871;28;20044;-79
2022/05/15 10:18:21;;;;;;;4.43;1.40;;;;;;;29.11;25.35;96419.91;5036826;28;20036;-79
2022/05/15 10:20:49;;;;;;;3.42;1.50;;;;;;;28.51;26.82;96416.09;5016197;28;20511;-79
2022/05/15 10:23:23;;;;;;;2.95;1.10;;;;;;;29.46;26.75;96415.50;5041132;28;20037;-79
2022/05/15 10:25:48;;;;;;;3.05;1.33;;;;;;;28.19;26.45;96419.78;5019780;28;20448;-79
2022/05/15 10:28:35;;;;;;;4.22;1.10;;;;;;;29.54;25.67;96411.41;5042719;28;20041;-79
2022/05/15 10:31:04;;;;;;;4.10;1.40;;;;;;;29.16;26.18;96404.72;5048248;28;20030;-79
2022/05/15 10:33:42;;;;;;;4.35;1.55;;;;;;;29.33;26.54;96399.81;5031832;28;20037;-79
2022/05/15 10:36:28;;;;;;;4.88;1.27;;;;;;;27.84;25.14;96417.00;5023821;28;20021;-79
2022/05/15 10:38:59;;;;;;;3.90;1.13;;;;;;;28.00;26.12;96409.72;5034000;28;20132;-79
2022/05/15 10:41:41;;;;;;;3.13;1.15;;;;;;;28.68;25.06;96410.44;5031127;28;20087;-79
2022/05/15 10:44:13;;;;;;;3.78;1.20;;;;;;;28.48;26.28;96405.81;5019176;28;20534;-79
2022/05/15 10:47:03;;;;;;;1.40;0.82;;;;;;;29.02;27.28;96401.78;5038546;28;20120;-79
2022/05/15 10:49:54;;;;;;;7.47;1.40;;;;;;;29.86;26.79;96402.13;5043574;28;20037;-79
2022/05/15 10:52:39;;;;;;;4.05;1.52;;;;;;;29.81;26.17;96401.06;5008388;28;20036;-79
2022/05/15 10:58:39;;;;;;;6.32;1.80;;;;;;;28.53;26.23;96400.38;5042445;28;20093;-79
2022/05/15 11:01:12;;;;;;;3.65;1.20;;;;;;;28.53;26.40;96391.47;5043983;28;20033;-79
2022/05/15 11:03:50;;;;;;;4.20;1.20;;;;;;;28.72;26.84;96394.47;5037554;28;20032;-79
2022/05/15 11:06:25;;;;;;;4.28;1.48;;;;;;;28.46;27.53;96386.31;5014487;28;20550;-79
2022/05/15 11:09:18;;;;;;;3.67;1.50;;;;;;;29.15;26.33;96379.56;5040179;28;20041;-79
2022/05/15 11:11:58;;;;;;;;;;;;;;;28.96;26.71;96373.06;5022381;28;20069;-79
2022/05/15 11:14:31;;;;;;;3.20;1.15;;;;;;;30.13;25.17;96377.28;5040746;28;19963;-79
2022/05/15 11:17:21;;;;;;;2.58;1.15;;;;;;;29.02;27.77;96370.09;5045213;28;20056;-79
2022/05/15 11:19:47;;;;;;;3.90;1.52;;;;;;;29.42;27.16;96375.69;5028332;28;20123;-79
2022/05/15 11:22:29;;;;;;;5.03;1.63;;;;;;;29.48;25.85;96369.19;5036569;28;20095;-79
2022/05/15 11:25:00;;;;;;;2.73;1.43;;;;;;;29.55;25.49;96366.97;5028655;28;20029;-79
2022/05/15 11:27:30;;;;;;;5.27;1.43;;;;;;;29.36;26.00;96367.56;5029620;28;20459;-79
2022/05/15 11:30:03;;;;;;;3.55;1.60;;;;;;;29.74;25.21;96361.75;5031950;28;20042;-79
2022/05/15 11:32:46;;;;;;;5.35;1.55;;;;;;;29.64;25.31;96362.63;5028153;28;20052;-80
2022/05/15 11:35:18;;;;;;;4.18;1.30;;;;;;;30.14;26.46;96352.59;5034563;28;20017;-79
2022/05/15 11:37:56;;;;;;;4.40;1.40;;;;;;;29.13;26.16;96351.94;5051575;28;20060;-79
2022/05/15 11:40:34;;;;;;;7.63;1.83;;;;;;;30.21;25.84;96355.00;5034785;28;20036;-79
2022/05/15 11:43:25;;;;;;;4.97;1.48;;;;;;;28.76;26.08;96350.34;5040087;28;20040;-79
2022/05/15 11:45:53;;;;;;;3.67;1.30;;;;;;;29.31;25.17;96345.09;5031540;28;20060;-79
2022/05/15 11:48:42;;;;;;;2.45;1.27;;;;;;;27.45;27.48;96347.91;5030546;28;20430;-79
2022/05/15 11:51:14;;;;;;;3.40;1.30;;;;;;;28.41;27.92;96340.34;5024228;28;20065;-80
2022/05/15 11:53:55;;;;;;;6.25;1.25;;;;;;;29.30;27.47;96330.75;5042096;28;20103;-80
2022/05/15 11:56:27;;;;;;;3.10;1.35;;;;;;;28.92;27.10;96324.06;5036382;28;20068;-80
2022/05/15 11:59:04;;;;;;;4.13;1.67;;;;;;;28.96;27.14;96324.31;5029976;28;20045;-80
2022/05/15 12:01:34;;;;;;;3.13;1.20;;;;;;;29.49;26.43;96327.44;5042270;28;20056;-79
2022/05/15 12:04:04;;;;;;;4.22;1.52;;;;;;;29.65;25.82;96326.31;5040752;28;20602;-79
2022/05/15 12:06:44;;;;;;;4.00;1.10;;;;;;;29.59;27.02;96317.38;5027518;28;20030;-79